Station Historical Data
Daily Summary for January 10, 2012 Units:  English    Metric   Both
« Previous Day
Next Day »
Daily Weekly Monthly Yearly Custom
  High: Low: Average:
Temperature: 56.5 °F 47.5 °F 51.6 °F
Dew Point: 55.4 °F 44.7 °F 50 °F
Humidity: 97% 88% 94%
Wind Speed: 12.0mph 0.0mph 4.8mph
Wind Gust: 17.0mph - -
Wind- - ENE
Pressure: 30.09 in 29.70 in -
Precipitation: 0.31 in    
Historical Graphs
 
 
Tabular Data for January 10, 2012
Time Temperature Dew Point Pressure Wind Wind Speed Wind Gust Humidity Rainfall Rate (Hourly) Conditions
00:00 49.5 °F 48.7 °F 30.08 in Calm     97% 0.00 in
00:01 49.5 °F 48.7 °F 30.08 in Calm     97% 0.00 in
00:06 49.5 °F 48.7 °F 30.09 in Calm     97% 0.00 in
00:11 49.5 °F 48.7 °F 30.08 in South 2.0 mph 2.0 mph 97% 0.00 in
00:16 49.4 °F 48.6 °F 30.08 in SSE 4.0 mph 4.0 mph 97% 0.00 in
00:21 49.6 °F 48.8 °F 30.07 in SE 3.0 mph 3.0 mph 97% 0.00 in
00:26 49.6 °F 48.8 °F 30.08 in Calm   2.0 mph 97% 0.00 in
00:31 49.5 °F 48.7 °F 30.07 in Calm   1.0 mph 97% 0.00 in
00:36 49.4 °F 48.6 °F 30.07 in ESE 1.0 mph 1.0 mph 97% 0.00 in
00:41 49.3 °F 48.5 °F 30.07 in ESE 1.0 mph 1.0 mph 97% 0.00 in
00:46 49.3 °F 48.5 °F 30.07 in Calm     97% 0.00 in
00:51 49.3 °F 48.5 °F 30.07 in Calm     97% 0.00 in
00:56 49.3 °F 48.5 °F 30.07 in ESE 1.0 mph 2.0 mph 97% 0.00 in
01:01 49.3 °F 48.5 °F 30.07 in Calm     97% 0.00 in
01:06 49.3 °F 48.5 °F 30.07 in Calm     97% 0.00 in
01:11 49.5 °F 48.7 °F 30.07 in NNE 2.0 mph 2.0 mph 97% 0.00 in
01:16 49.4 °F 48.6 °F 30.07 in North 1.0 mph 2.0 mph 97% 0.00 in
01:21 49.4 °F 48.6 °F 30.07 in NNE 3.0 mph 3.0 mph 97% 0.00 in
01:26 49.4 °F 48.6 °F 30.07 in North 1.0 mph 2.0 mph 97% 0.00 in
01:31 49.4 °F 48.6 °F 30.07 in NNE 4.0 mph 4.0 mph 97% 0.00 in
01:36 49.5 °F 48.7 °F 30.07 in NNE 4.0 mph 4.0 mph 97% 0.00 in
01:41 49.5 °F 48.7 °F 30.06 in NNE 4.0 mph 5.0 mph 97% 0.00 in
01:46 49.5 °F 48.7 °F 30.06 in NNE 5.0 mph 6.0 mph 97% 0.00 in
01:51 49.5 °F 48.7 °F 30.06 in NE 3.0 mph 6.0 mph 97% 0.00 in
01:56 49.5 °F 48.7 °F 30.06 in NE 2.0 mph 4.0 mph 97% 0.00 in
02:01 49.5 °F 48.7 °F 30.07 in ENE 1.0 mph 2.0 mph 97% 0.00 in
02:06 49.5 °F 48.7 °F 30.07 in ENE 1.0 mph 1.0 mph 97% 0.00 in
02:11 49.5 °F 48.7 °F 30.07 in NNE 1.0 mph 2.0 mph 97% 0.00 in
02:16 49.5 °F 48.7 °F 30.07 in NNW 1.0 mph 1.0 mph 97% 0.00 in
02:21 49.5 °F 48.7 °F 30.07 in NNE 2.0 mph 4.0 mph 97% 0.00 in
02:26 49.5 °F 48.7 °F 30.06 in NE 4.0 mph 4.0 mph 97% 0.00 in
02:32 49.4 °F 48.6 °F 30.06 in NE 4.0 mph 5.0 mph 97% 0.00 in
02:37 49.4 °F 48.6 °F 30.06 in NE 5.0 mph 7.0 mph 97% 0.00 in
02:42 49.4 °F 48.6 °F 30.06 in NE 8.0 mph 8.0 mph 97% 0.00 in
02:47 49.3 °F 48.5 °F 30.06 in NNW 3.0 mph 5.0 mph 97% 0.00 in
02:52 49.4 °F 48.6 °F 30.07 in North 6.0 mph 6.0 mph 97% 0.00 in
02:57 49.4 °F 48.6 °F 30.08 in North 3.0 mph 6.0 mph 97% 0.00 in
03:02 49.4 °F 48.6 °F 30.07 in North 7.0 mph 8.0 mph 97% 0.00 in
03:07 49.4 °F 48.6 °F 30.07 in North 3.0 mph 6.0 mph 97% 0.00 in
03:12 49.3 °F 48.5 °F 30.07 in NNE 7.0 mph 9.0 mph 97% 0.00 in
03:17 49.3 °F 48.5 °F 30.07 in NNE 4.0 mph 6.0 mph 97% 0.00 in
03:22 49.3 °F 48.5 °F 30.07 in NNE 5.0 mph 9.0 mph 97% 0.00 in
03:27 49.3 °F 48.5 °F 30.07 in NE 7.0 mph 8.0 mph 97% 0.00 in
03:32 49.2 °F 48.4 °F 30.06 in NNE 6.0 mph 6.0 mph 97% 0.00 in
03:37 49.2 °F 48.4 °F 30.06 in NE 7.0 mph 8.0 mph 97% 0.00 in
03:42 49.2 °F 48.4 °F 30.06 in NE 6.0 mph 7.0 mph 97% 0.00 in
03:47 49.1 °F 48.3 °F 30.06 in NNE 4.0 mph 9.0 mph 97% 0.00 in
03:52 49.1 °F 48.3 °F 30.06 in NE 4.0 mph 9.0 mph 97% 0.00 in
03:57 49.1 °F 48.3 °F 30.06 in NE 2.0 mph 6.0 mph 97% 0.00 in
04:02 49.1 °F 48.3 °F 30.06 in NE 4.0 mph 5.0 mph 97% 0.00 in
04:07 49.1 °F 48.3 °F 30.06 in NNE 4.0 mph 7.0 mph 97% 0.00 in
04:12 49.1 °F 48.3 °F 30.06 in NE 3.0 mph 6.0 mph 97% 0.00 in
04:17 49.1 °F 48.3 °F 30.06 in NE 5.0 mph 7.0 mph 97% 0.00 in
04:22 49.0 °F 48.2 °F 30.06 in NE 2.0 mph 6.0 mph 97% 0.00 in
04:27 48.9 °F 48.1 °F 30.05 in NNE 5.0 mph 7.0 mph 97% 0.00 in
04:32 48.9 °F 48.1 °F 30.06 in NNE 2.0 mph 6.0 mph 97% 0.00 in
04:37 48.8 °F 48.0 °F 30.05 in NE 2.0 mph 6.0 mph 97% 0.00 in
04:42 48.8 °F 48.0 °F 30.05 in NNE 5.0 mph 6.0 mph 97% 0.00 in
04:47 48.7 °F 47.9 °F 30.05 in NE 4.0 mph 6.0 mph 97% 0.00 in
04:52 48.7 °F 47.9 °F 30.05 in NE 6.0 mph 7.0 mph 97% 0.00 in
04:57 48.6 °F 47.8 °F 30.05 in NE 4.0 mph 7.0 mph 97% 0.00 in
05:02 48.6 °F 47.5 °F 30.04 in NNE 7.0 mph 8.0 mph 96% 0.00 in
05:07 48.5 °F 47.4 °F 30.04 in NNE 5.0 mph 9.0 mph 96% 0.00 in
05:12 48.5 °F 47.4 °F 30.04 in NNE 4.0 mph 7.0 mph 96% 0.00 in
05:17 48.4 °F 47.3 °F 30.04 in NNE 4.0 mph 8.0 mph 96% 0.00 in
05:22 48.4 °F 47.3 °F 30.04 in NNE 5.0 mph 8.0 mph 96% 0.00 in
05:27 48.3 °F 46.9 °F 30.04 in NNE 6.0 mph 8.0 mph 95% 0.00 in
05:32 48.2 °F 46.8 °F 30.04 in NNE 6.0 mph 8.0 mph 95% 0.00 in
05:37 48.2 °F 46.8 °F 30.04 in NE 6.0 mph 8.0 mph 95% 0.00 in
05:42 48.2 °F 46.6 °F 30.04 in NE 6.0 mph 9.0 mph 94% 0.00 in
05:47 48.1 °F 46.5 °F 30.03 in NNE 5.0 mph 8.0 mph 94% 0.00 in
05:52 48.1 °F 46.5 °F 30.03 in NE 5.0 mph 10.0 mph 94% 0.00 in
05:58 48.1 °F 46.5 °F 30.04 in NNE 3.0 mph 7.0 mph 94% 0.00 in
06:03 48.1 °F 46.5 °F 30.03 in NE 5.0 mph 7.0 mph 94% 0.00 in
06:07 48.1 °F 46.5 °F 30.03 in NE 5.0 mph 6.0 mph 94% 0.00 in
06:12 48.1 °F 46.5 °F 30.04 in NE 4.0 mph 8.0 mph 94% 0.00 in
06:18 48.0 °F 46.4 °F 30.04 in NE 4.0 mph 7.0 mph 94% 0.00 in
06:23 48.0 °F 46.4 °F 30.04 in NNE 5.0 mph 7.0 mph 94% 0.00 in
06:28 48.0 °F 46.1 °F 30.04 in NE 6.0 mph 8.0 mph 93% 0.00 in
06:33 48.0 °F 46.1 °F 30.04 in NE 9.0 mph 9.0 mph 93% 0.00 in
06:38 48.0 °F 46.1 °F 30.04 in NNE 5.0 mph 7.0 mph 93% 0.00 in
06:43 48.0 °F 46.1 °F 30.04 in NE 4.0 mph 6.0 mph 93% 0.00 in
06:48 48.0 °F 45.8 °F 30.04 in NE 4.0 mph 8.0 mph 92% 0.00 in
06:53 48.0 °F 45.8 °F 30.04 in NE 5.0 mph 9.0 mph 92% 0.00 in
06:58 48.0 °F 45.5 °F 30.03 in NE 7.0 mph 10.0 mph 91% 0.00 in
07:03 47.9 °F 45.4 °F 30.03 in NE 5.0 mph 8.0 mph 91% 0.00 in
07:08 47.9 °F 45.4 °F 30.03 in NE 5.0 mph 11.0 mph 91% 0.00 in
07:13 47.9 °F 45.4 °F 30.02 in NE 7.0 mph 10.0 mph 91% 0.00 in
07:18 47.9 °F 45.1 °F 30.03 in NNE 5.0 mph 11.0 mph 90% 0.00 in
07:23 47.8 °F 45.0 °F 30.03 in NE 5.0 mph 11.0 mph 90% 0.00 in
07:28 47.8 °F 45.0 °F 30.03 in NE 5.0 mph 9.0 mph 90% 0.00 in
07:33 47.7 °F 44.9 °F 30.04 in NE 8.0 mph 8.0 mph 90% 0.00 in
07:38 47.7 °F 44.9 °F 30.04 in NE 6.0 mph 8.0 mph 90% 0.00 in
07:43 47.7 °F 44.9 °F 30.03 in NE 6.0 mph 9.0 mph 90% 0.00 in
07:48 47.7 °F 44.9 °F 30.04 in NE 3.0 mph 6.0 mph 90% 0.00 in
07:53 47.6 °F 44.8 °F 30.04 in NNE 4.0 mph 8.0 mph 90% 0.00 in
07:58 47.6 °F 44.8 °F 30.04 in North 7.0 mph 7.0 mph 90% 0.00 in
08:03 47.6 °F 44.8 °F 30.04 in NNE 4.0 mph 7.0 mph 90% 0.00 in
08:08 47.5 °F 44.7 °F 30.04 in NNE 4.0 mph 8.0 mph 90% 0.00 in
08:13 47.6 °F 44.8 °F 30.04 in NE 5.0 mph 5.0 mph 90% 0.00 in
08:18 47.5 °F 44.7 °F 30.04 in NE 4.0 mph 4.0 mph 90% 0.00 in
08:23 47.6 °F 44.8 °F 30.05 in NE 4.0 mph 8.0 mph 90% 0.00 in
08:28 47.6 °F 44.8 °F 30.04 in NE 2.0 mph 6.0 mph 90% 0.00 in
08:33 47.6 °F 44.8 °F 30.05 in NNE 5.0 mph 7.0 mph 90% 0.00 in
08:38 47.7 °F 44.9 °F 30.04 in North 3.0 mph 7.0 mph 90% 0.00 in
08:43 47.7 °F 44.9 °F 30.03 in NNE 6.0 mph 9.0 mph 90% 0.00 in
08:48 47.7 °F 44.9 °F 30.03 in NNE 7.0 mph 7.0 mph 90% 0.00 in
08:53 47.7 °F 44.9 °F 30.04 in North 5.0 mph 7.0 mph 90% 0.00 in
08:58 47.8 °F 45.0 °F 30.03 in NNE 6.0 mph 6.0 mph 90% 0.00 in
09:03 47.9 °F 45.1 °F 30.04 in NE 6.0 mph 7.0 mph 90% 0.00 in
09:08 48.0 °F 45.5 °F 30.03 in ENE 7.0 mph 8.0 mph 91% 0.00 in
09:13 48.1 °F 45.3 °F 30.04 in NE 5.0 mph 9.0 mph 90% 0.00 in
09:19 48.2 °F 45.4 °F 30.04 in North 4.0 mph 7.0 mph 90% 0.00 in
09:24 48.2 °F 45.4 °F 30.04 in NE 5.0 mph 9.0 mph 90% 0.00 in
09:29 48.3 °F 45.5 °F 30.04 in NNE 3.0 mph 9.0 mph 90% 0.00 in
09:34 48.3 °F 45.5 °F 30.03 in NNE 8.0 mph 8.0 mph 90% 0.00 in
09:39 48.4 °F 45.6 °F 30.03 in NNE 4.0 mph 7.0 mph 90% 0.00 in
09:44 48.4 °F 45.6 °F 30.02 in North 3.0 mph 7.0 mph 90% 0.00 in
09:49 48.6 °F 45.8 °F 30.02 in NE 6.0 mph 9.0 mph 90% 0.00 in
09:54 48.7 °F 45.9 °F 30.03 in NE 4.0 mph 6.0 mph 90% 0.00 in
09:59 48.9 °F 45.8 °F 30.03 in NNE 5.0 mph 7.0 mph 89% 0.00 in
10:04 49.1 °F 46.0 °F 30.03 in NE 7.0 mph 9.0 mph 89% 0.00 in
10:09 49.2 °F 46.1 °F 30.03 in NE 3.0 mph 6.0 mph 89% 0.00 in
10:14 49.3 °F 46.2 °F 30.03 in NE 4.0 mph 6.0 mph 89% 0.00 in
10:19 49.3 °F 46.2 °F 30.03 in NE 5.0 mph 9.0 mph 89% 0.00 in
10:24 49.4 °F 46.3 °F 30.03 in NE 3.0 mph 9.0 mph 89% 0.00 in
10:29 49.5 °F 46.4 °F 30.03 in NE 6.0 mph 8.0 mph 89% 0.00 in
10:34 49.5 °F 46.4 °F 30.03 in ENE 6.0 mph 7.0 mph 89% 0.00 in
10:39 49.6 °F 46.5 °F 30.03 in NE 2.0 mph 7.0 mph 89% 0.00 in
10:44 49.6 °F 46.2 °F 30.03 in NE 6.0 mph 8.0 mph 88% 0.00 in
10:49 49.6 °F 46.5 °F 30.02 in ENE 5.0 mph 8.0 mph 89% 0.00 in
10:54 49.7 °F 46.6 °F 30.02 in ENE 6.0 mph 7.0 mph 89% 0.00 in
10:59 49.8 °F 46.7 °F 30.03 in NNE 2.0 mph 6.0 mph 89% 0.00 in
11:04 50.0 °F 46.9 °F 30.03 in ENE 6.0 mph 7.0 mph 89% 0.00 in
11:09 50.1 °F 47.0 °F 30.02 in NE 3.0 mph 6.0 mph 89% 0.00 in
11:14 50.2 °F 47.1 °F 30.03 in NE 6.0 mph 6.0 mph 89% 0.00 in
11:19 50.2 °F 47.1 °F 30.03 in NE 4.0 mph 7.0 mph 89% 0.00 in
11:24 50.3 °F 46.9 °F 30.02 in NE 6.0 mph 8.0 mph 88% 0.00 in
11:29 50.4 °F 47.0 °F 30.02 in ESE 4.0 mph 8.0 mph 88% 0.00 in
11:34 50.5 °F 47.4 °F 30.01 in East 5.0 mph 7.0 mph 89% 0.00 in
11:39 50.7 °F 47.6 °F 30.01 in ENE 5.0 mph 8.0 mph 89% 0.00 in
11:44 50.8 °F 47.7 °F 30.01 in NE 5.0 mph 9.0 mph 89% 0.00 in
11:49 50.8 °F 47.7 °F 30.02 in NNE 5.0 mph 7.0 mph 89% 0.00 in
11:54 50.7 °F 47.3 °F 30.01 in NE 6.0 mph 9.0 mph 88% 0.00 in
11:59 50.8 °F 47.7 °F 30.00 in NE 6.0 mph 6.0 mph 89% 0.00 in
12:04 50.8 °F 47.7 °F 30.00 in East 3.0 mph 6.0 mph 89% 0.00 in
12:10 50.8 °F 47.7 °F 29.99 in ENE 1.0 mph 5.0 mph 89% 0.00 in
12:14 50.9 °F 48.1 °F 30.00 in ENE 4.0 mph 5.0 mph 90% 0.00 in
12:19 51.0 °F 48.2 °F 29.99 in East 4.0 mph 8.0 mph 90% 0.00 in
12:25 51.1 °F 48.3 °F 29.98 in East 5.0 mph 8.0 mph 90% 0.00 in
12:30 51.3 °F 48.5 °F 29.98 in NE 7.0 mph 7.0 mph 90% 0.00 in
12:35 51.5 °F 48.7 °F 29.99 in NNE 4.0 mph 6.0 mph 90% 0.00 in
12:40 51.5 °F 48.7 °F 29.98 in NE 3.0 mph 6.0 mph 90% 0.00 in
12:45 51.5 °F 48.7 °F 29.98 in NNE 5.0 mph 6.0 mph 90% 0.00 in
12:50 51.6 °F 48.8 °F 29.98 in NNE 3.0 mph 6.0 mph 90% 0.00 in
12:55 51.6 °F 48.8 °F 29.97 in NE 4.0 mph 8.0 mph 90% 0.00 in
13:00 51.6 °F 48.8 °F 29.97 in NE 3.0 mph 7.0 mph 90% 0.00 in
13:05 51.7 °F 49.2 °F 29.96 in East 7.0 mph 7.0 mph 91% 0.00 in
13:10 51.7 °F 49.2 °F 29.96 in East 6.0 mph 9.0 mph 91% 0.00 in
13:15 51.8 °F 49.3 °F 29.95 in ESE 5.0 mph 8.0 mph 91% 0.00 in
13:21 51.8 °F 49.5 °F 29.95 in East 5.0 mph 9.0 mph 92% 0.00 in
13:26 51.8 °F 49.5 °F 29.94 in NE 7.0 mph 9.0 mph 92% 0.00 in
13:31 51.9 °F 49.7 °F 29.94 in East 6.0 mph 10.0 mph 92% 0.00 in
13:36 51.9 °F 49.7 °F 29.93 in East 5.0 mph 11.0 mph 92% 0.00 in
13:41 51.9 °F 49.9 °F 29.93 in East 2.0 mph 5.0 mph 93% 0.00 in
13:46 51.9 °F 49.9 °F 29.93 in NE 4.0 mph 7.0 mph 93% 0.00 in
13:51 51.9 °F 50.2 °F 29.92 in NE 6.0 mph 6.0 mph 94% 0.00 in
13:56 51.8 °F 50.1 °F 29.92 in NNE 3.0 mph 6.0 mph 94% 0.00 in
14:01 51.8 °F 50.1 °F 29.92 in ENE 5.0 mph 7.0 mph 94% 0.00 in
14:06 51.8 °F 50.1 °F 29.92 in NE 4.0 mph 7.0 mph 94% 0.00 in
14:11 51.9 °F 50.5 °F 29.91 in NE 4.0 mph 7.0 mph 95% 0.00 in
14:16 51.9 °F 50.5 °F 29.91 in NNE 3.0 mph 6.0 mph 95% 0.00 in
14:21 52.0 °F 50.6 °F 29.90 in NE 8.0 mph 9.0 mph 95% 0.00 in
14:26 52.0 °F 50.6 °F 29.90 in ESE 4.0 mph 6.0 mph 95% 0.00 in
14:31 52.2 °F 51.1 °F 29.90 in NNE 5.0 mph 7.0 mph 96% 0.00 in
14:36 52.3 °F 51.2 °F 29.89 in NE 7.0 mph 11.0 mph 96% 0.00 in
14:41 52.4 °F 51.3 °F 29.89 in East 6.0 mph 9.0 mph 96% 0.00 in
14:46 52.5 °F 51.4 °F 29.89 in NE 5.0 mph 5.0 mph 96% 0.00 in
14:51 52.6 °F 51.5 °F 29.89 in NE 5.0 mph 6.0 mph 96% 0.00 in
14:56 52.7 °F 51.6 °F 29.89 in ENE 10.0 mph 10.0 mph 96% 0.00 in
15:01 52.8 °F 51.7 °F 29.88 in NE 4.0 mph 6.0 mph 96% 0.00 in
15:06 53.0 °F 51.9 °F 29.88 in NNE 3.0 mph 6.0 mph 96% 0.00 in
15:11 53.1 °F 52.0 °F 29.88 in NE 6.0 mph 6.0 mph 96% 0.00 in
15:16 53.2 °F 52.1 °F 29.88 in NE 4.0 mph 8.0 mph 96% 0.00 in
15:21 53.2 °F 52.1 °F 29.88 in NE 3.0 mph 7.0 mph 96% 0.00 in
15:26 53.2 °F 52.1 °F 29.87 in East 3.0 mph 6.0 mph 96% 0.00 in
15:31 53.2 °F 52.1 °F 29.87 in East 3.0 mph 7.0 mph 96% 0.00 in
15:36 53.2 °F 52.1 °F 29.87 in ENE 4.0 mph 6.0 mph 96% 0.00 in
15:41 53.3 °F 52.2 °F 29.87 in ESE 6.0 mph 8.0 mph 96% 0.00 in
15:46 53.4 °F 52.3 °F 29.87 in NE 3.0 mph 7.0 mph 96% 0.00 in
15:51 53.4 °F 52.3 °F 29.87 in NNE 5.0 mph 7.0 mph 96% 0.00 in
15:56 53.5 °F 52.4 °F 29.87 in ENE 8.0 mph 8.0 mph 96% 0.00 in
16:01 53.6 °F 52.5 °F 29.86 in NE 3.0 mph 7.0 mph 96% 0.00 in
16:06 53.7 °F 52.6 °F 29.86 in ESE 5.0 mph 6.0 mph 96% 0.00 in
16:11 53.7 °F 52.6 °F 29.86 in ENE 4.0 mph 9.0 mph 96% 0.00 in
16:16 53.8 °F 52.7 °F 29.86 in ESE 3.0 mph 8.0 mph 96% 0.00 in
16:21 53.8 °F 52.7 °F 29.86 in East 6.0 mph 8.0 mph 96% 0.00 in
16:26 54.0 °F 52.9 °F 29.85 in East 5.0 mph 7.0 mph 96% 0.00 in
16:31 54.1 °F 53.0 °F 29.85 in East 4.0 mph 8.0 mph 96% 0.00 in
16:37 54.1 °F 53.0 °F 29.85 in NNE 6.0 mph 7.0 mph 96% 0.00 in
16:42 54.2 °F 53.1 °F 29.85 in ENE 3.0 mph 6.0 mph 96% 0.00 in
16:47 54.3 °F 53.2 °F 29.85 in East 4.0 mph 8.0 mph 96% 0.00 in
16:52 54.3 °F 53.2 °F 29.85 in NE 2.0 mph 9.0 mph 96% 0.00 in
16:57 54.4 °F 53.3 °F 29.85 in NE 4.0 mph 6.0 mph 96% 0.00 in
17:02 54.5 °F 53.4 °F 29.85 in East 3.0 mph 6.0 mph 96% 0.00 in
17:07 54.5 °F 53.4 °F 29.85 in ENE 6.0 mph 7.0 mph 96% 0.00 in
17:12 54.5 °F 53.4 °F 29.85 in East 1.0 mph 4.0 mph 96% 0.00 in
17:17 54.5 °F 53.4 °F 29.85 in East 1.0 mph 5.0 mph 96% 0.00 in
17:22 54.6 °F 53.5 °F 29.85 in ENE 3.0 mph 6.0 mph 96% 0.00 in
17:27 54.6 °F 53.5 °F 29.84 in ESE 2.0 mph 4.0 mph 96% 0.00 in
17:32 54.6 °F 53.5 °F 29.84 in East 5.0 mph 6.0 mph 96% 0.00 in
17:37 54.6 °F 53.5 °F 29.84 in ENE 1.0 mph 5.0 mph 96% 0.00 in
17:42 54.6 °F 53.5 °F 29.85 in ESE 3.0 mph 4.0 mph 96% 0.00 in
17:47 54.7 °F 53.6 °F 29.85 in ENE 4.0 mph 6.0 mph 96% 0.00 in
17:52 54.7 °F 53.6 °F 29.85 in East 3.0 mph 5.0 mph 96% 0.00 in
17:57 54.6 °F 53.5 °F 29.85 in East 3.0 mph 4.0 mph 96% 0.00 in
18:02 54.7 °F 53.6 °F 29.84 in East 2.0 mph 7.0 mph 96% 0.00 in
18:07 54.7 °F 53.6 °F 29.84 in ENE 4.0 mph 8.0 mph 96% 0.00 in
18:12 54.7 °F 53.6 °F 29.84 in East 4.0 mph 9.0 mph 96% 0.00 in
18:17 54.7 °F 53.6 °F 29.84 in East 5.0 mph 6.0 mph 96% 0.00 in
18:22 54.7 °F 53.6 °F 29.83 in ENE 4.0 mph 8.0 mph 96% 0.00 in
18:27 54.8 °F 53.7 °F 29.83 in ESE 5.0 mph 7.0 mph 96% 0.00 in
18:32 54.8 °F 53.7 °F 29.83 in East 5.0 mph 7.0 mph 96% 0.00 in
18:37 54.8 °F 53.7 °F 29.83 in NE 7.0 mph 7.0 mph 96% 0.00 in
18:42 54.9 °F 53.8 °F 29.83 in East 2.0 mph 6.0 mph 96% 0.00 in
18:47 54.9 °F 53.8 °F 29.82 in East 5.0 mph 8.0 mph 96% 0.00 in
18:52 54.9 °F 53.8 °F 29.82 in East 3.0 mph 9.0 mph 96% 0.00 in
18:57 54.9 °F 53.8 °F 29.82 in East 6.0 mph 9.0 mph 96% 0.00 in
19:02 55.0 °F 53.9 °F 29.81 in ENE 4.0 mph 9.0 mph 96% 0.00 in
19:07 55.1 °F 54.0 °F 29.82 in ESE 6.0 mph 8.0 mph 96% 0.00 in
19:13 55.1 °F 54.0 °F 29.81 in ENE 6.0 mph 8.0 mph 96% 0.00 in
19:18 55.1 °F 54.0 °F 29.81 in ENE 6.0 mph 10.0 mph 96% 0.00 in
19:23 55.1 °F 54.0 °F 29.81 in East 6.0 mph 9.0 mph 96% 0.00 in
19:28 55.2 °F 54.1 °F 29.81 in East 3.0 mph 8.0 mph 96% 0.00 in
19:33 55.2 °F 54.1 °F 29.82 in East 7.0 mph 9.0 mph 96% 0.00 in
19:38 55.3 °F 54.2 °F 29.81 in ESE 6.0 mph 10.0 mph 96% 0.00 in
19:43 55.4 °F 54.3 °F 29.81 in East 8.0 mph 11.0 mph 96% 0.00 in
19:48 55.4 °F 54.3 °F 29.81 in ESE 9.0 mph 11.0 mph 96% 0.00 in
19:53 55.5 °F 54.4 °F 29.80 in ESE 8.0 mph 11.0 mph 96% 0.00 in
19:58 55.6 °F 54.5 °F 29.80 in East 9.0 mph 11.0 mph 96% 0.00 in
20:03 55.7 °F 54.6 °F 29.80 in ENE 6.0 mph 9.0 mph 96% 0.00 in
20:08 55.7 °F 54.6 °F 29.79 in East 5.0 mph 8.0 mph 96% 0.00 in
20:13 55.8 °F 54.7 °F 29.79 in ESE 9.0 mph 10.0 mph 96% 0.00 in
20:18 55.8 °F 54.7 °F 29.80 in ESE 5.0 mph 9.0 mph 96% 0.00 in
20:23 55.8 °F 54.7 °F 29.80 in ESE 6.0 mph 9.0 mph 96% 0.00 in
20:28 55.9 °F 54.8 °F 29.79 in ESE 9.0 mph 10.0 mph 96% 0.00 in
20:33 55.8 °F 54.7 °F 29.79 in East 4.0 mph 8.0 mph 96% 0.00 in
20:38 55.8 °F 54.7 °F 29.79 in ENE 6.0 mph 7.0 mph 96% 0.00 in
20:43 55.9 °F 54.8 °F 29.78 in ESE 9.0 mph 10.0 mph 96% 0.00 in
20:48 55.9 °F 54.8 °F 29.78 in East 5.0 mph 9.0 mph 96% 0.00 in
20:53 55.9 °F 54.8 °F 29.78 in East 12.0 mph 12.0 mph 96% 0.00 in
20:58 55.9 °F 54.8 °F 29.77 in East 8.0 mph 8.0 mph 96% 0.00 in
21:03 55.9 °F 54.8 °F 29.77 in East 6.0 mph 11.0 mph 96% 0.00 in
21:08 55.9 °F 54.8 °F 29.77 in SE 6.0 mph 8.0 mph 96% 0.00 in
21:13 56.0 °F 54.9 °F 29.77 in ESE 6.0 mph 11.0 mph 96% 0.00 in
21:19 56.0 °F 54.9 °F 29.77 in SE 8.0 mph 9.0 mph 96% 0.00 in
21:24 56.0 °F 54.9 °F 29.77 in ESE 9.0 mph 10.0 mph 96% 0.00 in
21:29 56.0 °F 54.9 °F 29.77 in ESE 8.0 mph 11.0 mph 96% 0.08 in
21:34 56.0 °F 54.9 °F 29.77 in ESE 5.0 mph 7.0 mph 96% 0.12 in
21:39 56.0 °F 54.9 °F 29.76 in East 7.0 mph 11.0 mph 96% 0.30 in
21:44 56.0 °F 54.9 °F 29.76 in East 7.0 mph 12.0 mph 96% 0.20 in
21:49 56.0 °F 54.9 °F 29.75 in SE 6.0 mph 9.0 mph 96% 0.22 in
21:54 56.0 °F 54.9 °F 29.76 in ESE 7.0 mph 10.0 mph 96% 0.13 in
21:59 56.1 °F 55.0 °F 29.75 in East 8.0 mph 12.0 mph 96% 0.09 in
22:04 56.0 °F 54.9 °F 29.75 in ENE 8.0 mph 8.0 mph 96% 0.10 in
22:09 56.0 °F 54.9 °F 29.75 in ESE 7.0 mph 10.0 mph 96% 0.21 in
22:14 56.1 °F 55.0 °F 29.75 in SE 7.0 mph 10.0 mph 96% 0.19 in
22:19 56.0 °F 54.9 °F 29.75 in ESE 5.0 mph 10.0 mph 96% 0.27 in
22:24 56.0 °F 54.9 °F 29.75 in SE 5.0 mph 8.0 mph 96% 0.31 in
22:29 56.1 °F 55.0 °F 29.74 in ESE 8.0 mph 11.0 mph 96% 0.47 in
22:34 56.1 °F 55.0 °F 29.74 in SE 8.0 mph 10.0 mph 96% 0.75 in
22:39 56.1 °F 55.0 °F 29.74 in ESE 6.0 mph 11.0 mph 96% 0.16 in
22:44 56.1 °F 55.0 °F 29.73 in ENE 6.0 mph 10.0 mph 96% 0.09 in
22:49 56.1 °F 55.0 °F 29.74 in ESE 6.0 mph 11.0 mph 96% 0.05 in
22:54 56.1 °F 55.0 °F 29.73 in East 6.0 mph 10.0 mph 96% 0.04 in
22:59 56.3 °F 55.2 °F 29.74 in ESE 9.0 mph 17.0 mph 96% 0.04 in
23:04 56.4 °F 55.3 °F 29.73 in SE 9.0 mph 12.0 mph 96% 0.04 in
23:09 56.4 °F 55.3 °F 29.73 in SE 6.0 mph 9.0 mph 96% 0.04 in
23:14 56.3 °F 55.2 °F 29.73 in SE 5.0 mph 7.0 mph 96% 0.00 in
23:19 56.4 °F 55.3 °F 29.73 in SE 8.0 mph 11.0 mph 96% 0.00 in
23:24 56.4 °F 55.3 °F 29.72 in ESE 8.0 mph 14.0 mph 96% 0.00 in
23:29 56.5 °F 55.4 °F 29.72 in ESE 8.0 mph 13.0 mph 96% 0.00 in
23:34 56.5 °F 55.4 °F 29.72 in ESE 11.0 mph 12.0 mph 96% 0.00 in
23:39 56.5 °F 55.4 °F 29.72 in ESE 7.0 mph 12.0 mph 96% 0.00 in
23:44 56.5 °F 55.4 °F 29.71 in ESE 10.0 mph 12.0 mph 96% 0.00 in
23:49 56.5 °F 55.4 °F 29.71 in SE 6.0 mph 11.0 mph 96% 0.00 in
23:54 56.4 °F 55.3 °F 29.71 in ESE 8.0 mph 11.0 mph 96% 0.00 in
23:59 56.4 °F 55.3 °F 29.70 in SE 5.0 mph 9.0 mph 96% 0.00 in
Compliments of Weather Underground